Terminal Aerodrome Forecast
Issued by NWS Green Bay, WI

Home | Current Version | Previous Version | Graphics & Text | Print | Product List | Glossary On
Versions: 1 2 3 4 5 6 7 8 9 10 11 12 13 14 15 16 17 18 19 20 21 22 23 24 25 26 27 28 29 30 31 32 33 34 35 36 37 38 39 40 41 42 43 44 45
000
FTUS43 KGRB 231300 AAA
TAFGRB
TAF AMD
KGRB 231323Z 2313/2412 11003KT 3SM BR SCT003 OVC009
      TEMPO 2313/2314 1SM BR OVC003
     FM231400 08006KT 5SM BR BKN010
      TEMPO 2314/2316 2SM BR BKN008
     FM231900 08007KT P6SM BKN023
     FM240200 05004KT 5SM BR BKN012
     FM240600 05003KT 3SM BR OVC006=

USA.gov is the U.S. government's official web portal to all federal, state and local government web resources and services.